createdAt,value
2019-02-20T00:00:43.388Z,17.10
2019-02-20T00:06:49.628Z,17.47
2019-02-20T00:12:55.471Z,11.70
2019-02-20T00:19:01.688Z,13.13
2019-02-20T00:25:09.172Z,12.80
2019-02-20T00:31:15.098Z,14.17
2019-02-20T00:37:20.984Z,20.40
2019-02-20T00:43:27.190Z,14.50
2019-02-20T00:49:37.536Z,14.17
2019-02-20T00:55:43.431Z,11.17
2019-02-20T01:01:49.340Z,20.00
2019-02-20T01:07:55.109Z,17.03
2019-02-20T01:14:01.118Z,14.17
2019-02-20T01:20:08.991Z,15.97
2019-02-20T01:26:15.182Z,14.80
2019-02-20T01:32:21.039Z,17.93
2019-02-20T01:38:26.946Z,16.43
2019-02-20T01:44:32.700Z,16.70
2019-02-20T01:50:38.490Z,13.73
2019-02-20T01:56:44.283Z,12.57
2019-02-20T02:02:50.331Z,12.63
2019-02-20T02:08:56.372Z,13.90
2019-02-20T02:15:02.220Z,14.27
2019-02-20T02:21:07.965Z,16.67
2019-02-20T02:27:13.854Z,11.80
2019-02-20T02:33:20.029Z,15.50
2019-02-20T02:39:26.138Z,17.57
2019-02-20T02:45:31.886Z,21.30
2019-02-20T02:51:37.623Z,15.93
2019-02-20T02:57:43.416Z,17.93
2019-02-20T03:03:49.266Z,15.93
2019-02-20T03:09:55.320Z,14.73
2019-02-20T03:16:01.338Z,19.83
2019-02-20T03:22:07.093Z,20.37
2019-02-20T03:28:12.944Z,18.30
2019-02-20T03:34:18.733Z,23.17
2019-02-20T03:40:24.455Z,24.30
2019-02-20T03:46:30.580Z,15.60
2019-02-20T03:52:36.866Z,18.53
2019-02-20T03:58:42.617Z,16.53
2019-02-20T04:04:48.315Z,11.53
2019-02-20T04:10:54.175Z,19.67
2019-02-20T04:16:59.985Z,15.93
2019-02-20T04:23:05.860Z,15.17
2019-02-20T04:29:11.599Z,16.87
2019-02-20T04:35:17.332Z,22.37
2019-02-20T04:41:23.195Z,17.40
2019-02-20T04:47:29.501Z,15.13
2019-02-20T04:53:35.256Z,16.43
2019-02-20T04:59:41.518Z,15.97
2019-02-20T05:05:47.506Z,20.80
2019-02-20T05:11:53.931Z,17.67
2019-02-20T05:18:00.005Z,14.97
2019-02-20T05:24:06.075Z,14.40
2019-02-20T05:30:11.820Z,20.37
2019-02-20T05:36:17.977Z,17.37
2019-02-20T05:42:24.074Z,19.97
2019-02-20T05:48:29.787Z,15.43
2019-02-20T05:54:35.998Z,18.20
2019-02-20T06:00:42.170Z,13.67
2019-02-20T06:06:49.127Z,15.13
2019-02-20T06:12:54.888Z,15.10
2019-02-20T06:19:00.816Z,12.60
2019-02-20T06:25:06.667Z,16.67
2019-02-20T06:31:12.734Z,14.03
2019-02-20T06:37:18.536Z,17.20
2019-02-20T06:43:24.542Z,15.53
2019-02-20T06:49:30.284Z,23.00
2019-02-20T06:55:36.302Z,14.70
2019-02-20T07:01:42.340Z,18.60
2019-02-20T07:08:51.651Z,17.60
2019-02-20T07:16:08.221Z,13.50
2019-02-20T07:22:45.021Z,13.40
2019-02-20T07:29:42.522Z,15.83
2019-02-20T07:35:48.430Z,15.67
2019-02-20T07:41:54.637Z,15.00
2019-02-20T07:48:01.205Z,21.93
2019-02-20T07:54:07.117Z,19.47
2019-02-20T08:00:14.635Z,26.07
2019-02-20T08:06:20.415Z,23.03
2019-02-20T08:12:26.454Z,20.03
2019-02-20T08:18:33.092Z,18.77
2019-02-20T08:24:39.360Z,18.53
2019-02-20T08:30:45.150Z,23.73
2019-02-20T08:36:50.990Z,21.33
2019-02-20T08:42:57.187Z,21.80
2019-02-20T08:49:03.044Z,23.40
2019-02-20T08:55:09.681Z,19.53
2019-02-20T09:01:15.578Z,23.83
2019-02-20T09:07:21.459Z,27.70
2019-02-20T09:13:27.279Z,25.73
2019-02-20T09:19:33.117Z,21.90
2019-02-20T09:25:41.591Z,22.90
2019-02-20T09:31:46.401Z,21.30
2019-02-20T09:37:52.269Z,23.57
2019-02-20T09:43:58.101Z,21.87
2019-02-20T09:50:03.978Z,24.73
2019-02-20T09:56:10.036Z,22.70
2019-02-20T10:02:16.054Z,21.63
2019-02-20T10:08:21.939Z,21.97
2019-02-20T10:14:27.855Z,24.07
2019-02-20T10:20:33.679Z,24.73
2019-02-20T10:26:39.421Z,37.83
2019-02-20T10:32:45.556Z,33.63
2019-02-20T10:38:51.422Z,31.27
2019-02-20T10:44:57.324Z,29.23
2019-02-20T10:51:03.427Z,33.13
2019-02-20T10:57:09.634Z,35.83
2019-02-20T11:03:15.420Z,32.70
2019-02-20T11:09:22.254Z,39.23
2019-02-20T11:15:28.846Z,37.57
2019-02-20T11:21:35.240Z,32.00
2019-02-20T11:27:42.093Z,30.90
2019-02-20T11:33:48.188Z,26.30
2019-02-20T11:39:54.602Z,27.87
2019-02-20T11:46:00.936Z,25.97
2019-02-20T11:52:06.776Z,30.60
2019-02-20T11:58:13.198Z,25.33
2019-02-20T12:04:18.981Z,21.40
2019-02-20T12:10:24.925Z,23.17
2019-02-20T12:16:31.317Z,21.97
2019-02-20T12:22:37.318Z,20.80
2019-02-20T12:28:43.636Z,19.07
2019-02-20T12:34:49.542Z,13.90
2019-02-20T12:40:55.482Z,14.93
2019-02-20T12:47:01.448Z,14.13
2019-02-20T12:53:07.445Z,12.90
2019-02-20T12:59:13.187Z,14.67
2019-02-20T13:05:19.273Z,8.97
2019-02-20T13:11:25.190Z,10.63
2019-02-20T13:17:31.099Z,12.13
2019-02-20T13:23:37.288Z,10.17
2019-02-20T13:29:43.103Z,16.37
2019-02-20T13:35:49.032Z,9.97
2019-02-20T13:41:55.318Z,10.40
2019-02-20T13:48:01.435Z,11.97
2019-02-20T13:54:07.316Z,12.83
2019-02-20T14:00:13.656Z,11.47
2019-02-20T14:06:19.476Z,14.37
2019-02-20T14:12:25.744Z,12.30
2019-02-20T14:18:31.816Z,13.03
2019-02-20T14:24:37.595Z,8.93
2019-02-20T14:30:43.362Z,9.17
2019-02-20T14:36:49.364Z,10.07
2019-02-20T14:42:55.361Z,9.83
2019-02-20T14:49:02.526Z,9.07
2019-02-20T14:55:09.988Z,11.23
2019-02-20T15:01:16.090Z,10.60
2019-02-20T15:07:22.431Z,11.00
2019-02-20T15:13:28.168Z,8.83
2019-02-20T15:19:34.027Z,9.07
2019-02-20T15:25:39.959Z,9.30
2019-02-20T15:31:45.843Z,9.83
2019-02-20T15:37:52.092Z,8.70
2019-02-20T15:43:58.148Z,12.87
2019-02-20T15:50:04.440Z,8.30
2019-02-20T15:56:14.048Z,11.87
2019-02-20T16:02:20.021Z,12.23
2019-02-20T16:08:25.900Z,8.70
2019-02-20T16:14:31.730Z,9.57
2019-02-20T16:20:37.912Z,8.27
2019-02-20T16:26:43.767Z,9.10
2019-02-20T16:32:51.207Z,8.40
2019-02-20T16:38:57.528Z,7.80
2019-02-20T16:45:03.294Z,11.03
2019-02-20T16:51:09.228Z,8.43
2019-02-20T16:57:15.366Z,9.07
2019-02-20T17:03:21.836Z,10.00
2019-02-20T17:09:27.981Z,9.77
2019-02-20T17:15:33.913Z,12.90
2019-02-20T17:21:40.041Z,8.87
2019-02-20T17:27:46.217Z,11.43
2019-02-20T17:33:52.203Z,11.13
2019-02-20T17:39:58.346Z,11.80
2019-02-20T17:46:04.502Z,11.47
2019-02-20T17:52:10.294Z,10.60
2019-02-20T17:58:16.860Z,20.33
2019-02-20T18:04:22.817Z,14.67
2019-02-20T18:10:28.914Z,17.57
2019-02-20T18:16:34.770Z,14.60
2019-02-20T18:22:40.791Z,13.77
2019-02-20T18:28:47.034Z,13.80
2019-02-20T18:34:53.220Z,14.97
2019-02-20T18:40:59.270Z,14.43
2019-02-20T18:47:05.121Z,13.07
2019-02-20T18:53:13.362Z,10.00
2019-02-20T18:59:19.303Z,11.53
2019-02-20T19:05:25.456Z,12.60
2019-02-20T19:12:08.903Z,10.37
2019-02-20T19:19:32.499Z,13.10
2019-02-20T19:26:24.688Z,14.27
2019-02-20T19:33:57.350Z,11.33
2019-02-20T19:41:04.432Z,13.47
2019-02-20T19:47:46.264Z,11.57
2019-02-20T19:54:42.223Z,11.43
2019-02-20T20:01:32.661Z,10.77
2019-02-20T20:08:11.530Z,11.83
2019-02-20T20:15:12.564Z,13.33
2019-02-20T20:22:16.235Z,13.27
2019-02-20T20:29:07.938Z,14.17
2019-02-20T20:36:27.507Z,15.57
2019-02-20T20:43:16.127Z,14.03
2019-02-20T20:50:19.377Z,17.03
2019-02-20T20:57:27.217Z,14.63
2019-02-20T21:03:33.942Z,17.67
2019-02-20T21:10:38.674Z,16.70
2019-02-20T21:17:44.561Z,20.53
2019-02-20T21:25:01.197Z,15.50
2019-02-20T21:32:18.636Z,17.53
2019-02-20T21:39:31.022Z,21.73
2019-02-20T21:46:15.435Z,17.87
2019-02-20T21:53:02.686Z,23.33
2019-02-20T22:00:12.025Z,17.93
2019-02-20T22:07:36.148Z,17.53
2019-02-20T22:14:49.564Z,22.77
2019-02-20T22:21:59.687Z,18.27
2019-02-20T22:28:45.842Z,21.23
2019-02-20T22:35:38.733Z,18.93
2019-02-20T22:42:36.942Z,17.27
2019-02-20T22:49:50.956Z,16.93
2019-02-20T22:56:44.254Z,17.80
2019-02-20T23:03:39.515Z,18.33
2019-02-20T23:10:09.882Z,17.77
2019-02-20T23:16:16.027Z,19.27
2019-02-20T23:22:22.153Z,18.17
2019-02-20T23:28:27.944Z,18.67
2019-02-20T23:34:33.963Z,18.67
2019-02-20T23:40:39.839Z,19.20
2019-02-20T23:46:46.040Z,24.83
2019-02-20T23:52:51.853Z,19.30
2019-02-20T23:58:57.896Z,23.03
